LXJ62 KMCO-KPBI
Flight info
| Callsign | LXJ62 |
|---|---|
| Flight time | 0h 42m |
| Altitude | 20000 |
| Route | DDANY3 BORRD CPTAN3 |
| Aircraft | C25C/M-BGS/L |
Departure
| Time | 2026-05-04 23:43 |
|---|---|
| Airport | Orlando International Airport (KMCO) |
Arrival
| Time | 2026-05-05 00:26 |
|---|---|
| Airport | Palm Beach International Airport (KPBI) |
| Time | Latitude | Longitude | Altitude | Speed | Heading |
|---|---|---|---|---|---|
| 2026-05-04 23:26 | 28.42245 | -81.33137 | 93 ft | 0 kts | 1° |
| 2026-05-04 23:41 | 28.42247 | -81.33137 | 93 ft | 4 kts | 2° |
| 2026-05-04 23:41 | 28.42275 | -81.33048 | 94 ft | 22 kts | 105° |
| 2026-05-04 23:41 | 28.42138 | -81.32941 | 96 ft | 26 kts | 163° |
| 2026-05-04 23:41 | 28.41951 | -81.32909 | 99 ft | 27 kts | 180° |
| 2026-05-04 23:42 | 28.41778 | -81.32909 | 103 ft | 23 kts | 179° |
| 2026-05-04 23:42 | 28.41619 | -81.32909 | 101 ft | 23 kts | 178° |
| 2026-05-04 23:42 | 28.41538 | -81.32781 | 102 ft | 25 kts | 92° |
| 2026-05-04 23:42 | 28.41642 | -81.32664 | 102 ft | 47 kts | 1° |
| 2026-05-04 23:43 | 28.42379 | -81.32668 | 202 ft | 154 kts | 2° |
| 2026-05-04 23:43 | 28.43605 | -81.32740 | 979 ft | 204 kts | 0° |
| 2026-05-04 23:43 | 28.45250 | -81.32761 | 1728 ft | 262 kts | 12° |
| 2026-05-04 23:43 | 28.46811 | -81.31784 | 2654 ft | 245 kts | 53° |
| 2026-05-04 23:44 | 28.47532 | -81.30045 | 3404 ft | 233 kts | 72° |
| 2026-05-04 23:44 | 28.48134 | -81.28366 | 3958 ft | 227 kts | 69° |
| 2026-05-04 23:44 | 28.48717 | -81.26668 | 4301 ft | 238 kts | 69° |
| 2026-05-04 23:44 | 28.49360 | -81.24842 | 4718 ft | 261 kts | 68° |
| 2026-05-04 23:45 | 28.49971 | -81.22943 | 5186 ft | 249 kts | 70° |
| 2026-05-04 23:45 | 28.50529 | -81.21119 | 5537 ft | 241 kts | 78° |
| 2026-05-04 23:45 | 28.50804 | -81.19231 | 5779 ft | 246 kts | 82° |
| 2026-05-04 23:45 | 28.51139 | -81.17249 | 6676 ft | 266 kts | 81° |
| 2026-05-04 23:46 | 28.51106 | -81.15213 | 8234 ft | 264 kts | 101° |
| 2026-05-04 23:46 | 28.50651 | -81.13092 | 9057 ft | 284 kts | 108° |
| 2026-05-04 23:46 | 28.50029 | -81.10962 | 10192 ft | 286 kts | 110° |
| 2026-05-04 23:46 | 28.49435 | -81.08916 | 11457 ft | 258 kts | 108° |
| 2026-05-04 23:47 | 28.48954 | -81.06983 | 11981 ft | 253 kts | 105° |
| 2026-05-04 23:47 | 28.48426 | -81.05059 | 12143 ft | 259 kts | 118° |
| 2026-05-04 23:47 | 28.47319 | -81.03400 | 12466 ft | 275 kts | 136° |
| 2026-05-04 23:47 | 28.45829 | -81.01900 | 12958 ft | 295 kts | 144° |
| 2026-05-04 23:48 | 28.44180 | -81.00486 | 13705 ft | 292 kts | 145° |
| 2026-05-04 23:48 | 28.42599 | -80.99200 | 14017 ft | 272 kts | 147° |
| 2026-05-04 23:48 | 28.41073 | -80.97967 | 14047 ft | 265 kts | 146° |
| 2026-05-04 23:48 | 28.39622 | -80.96700 | 14048 ft | 262 kts | 143° |
| 2026-05-04 23:49 | 28.38224 | -80.95399 | 14053 ft | 257 kts | 142° |
| 2026-05-04 23:49 | 28.36835 | -80.94139 | 14033 ft | 254 kts | 146° |
| 2026-05-04 23:49 | 28.35408 | -80.92980 | 14033 ft | 251 kts | 145° |
| 2026-05-04 23:49 | 28.34050 | -80.91748 | 14035 ft | 248 kts | 143° |
| 2026-05-04 23:50 | 28.32713 | -80.90516 | 14031 ft | 248 kts | 143° |
| 2026-05-04 23:50 | 28.31374 | -80.89289 | 14032 ft | 253 kts | 144° |
| 2026-05-04 23:50 | 28.29991 | -80.88032 | 14032 ft | 256 kts | 143° |
| 2026-05-04 23:50 | 28.28595 | -80.86763 | 14032 ft | 259 kts | 141° |
| 2026-05-04 23:51 | 28.27550 | -80.85093 | 14033 ft | 265 kts | 112° |
| 2026-05-04 23:51 | 28.26847 | -80.83140 | 14039 ft | 268 kts | 115° |
| 2026-05-04 23:51 | 28.26130 | -80.81173 | 14042 ft | 271 kts | 113° |
| 2026-05-04 23:51 | 28.25450 | -80.79201 | 14046 ft | 272 kts | 113° |
| 2026-05-04 23:52 | 28.24735 | -80.77174 | 14049 ft | 274 kts | 112° |
| 2026-05-04 23:52 | 28.24008 | -80.75175 | 14048 ft | 275 kts | 114° |
| 2026-05-04 23:52 | 28.23287 | -80.73194 | 14047 ft | 276 kts | 113° |
| 2026-05-04 23:52 | 28.22560 | -80.71181 | 14043 ft | 277 kts | 113° |
| 2026-05-04 23:53 | 28.21836 | -80.69158 | 14040 ft | 278 kts | 113° |
| 2026-05-04 23:53 | 28.20928 | -80.67240 | 14032 ft | 275 kts | 134° |
| 2026-05-04 23:53 | 28.19424 | -80.65931 | 14030 ft | 273 kts | 148° |
| 2026-05-04 23:53 | 28.17867 | -80.64694 | 14031 ft | 273 kts | 149° |
| 2026-05-04 23:54 | 28.16275 | -80.63515 | 14034 ft | 273 kts | 148° |
| 2026-05-04 23:54 | 28.14694 | -80.62310 | 14016 ft | 274 kts | 148° |
| 2026-05-04 23:54 | 28.13117 | -80.61100 | 14018 ft | 274 kts | 148° |
| 2026-05-04 23:54 | 28.11547 | -80.59879 | 14044 ft | 273 kts | 148° |
| 2026-05-04 23:55 | 28.09966 | -80.58675 | 14053 ft | 273 kts | 148° |
| 2026-05-04 23:55 | 28.08386 | -80.57475 | 14054 ft | 273 kts | 148° |
| 2026-05-04 23:55 | 28.05233 | -80.55055 | 14055 ft | 274 kts | 148° |
| 2026-05-04 23:56 | 28.03653 | -80.53844 | 14051 ft | 274 kts | 148° |
| 2026-05-04 23:56 | 28.02078 | -80.52637 | 14053 ft | 274 kts | 149° |
| 2026-05-04 23:56 | 28.00520 | -80.51447 | 14054 ft | 274 kts | 149° |
| 2026-05-04 23:56 | 27.98941 | -80.50242 | 14053 ft | 274 kts | 149° |
| 2026-05-04 23:57 | 27.97363 | -80.49031 | 14054 ft | 274 kts | 149° |
| 2026-05-04 23:57 | 27.95778 | -80.47825 | 14054 ft | 274 kts | 149° |
| 2026-05-04 23:57 | 27.94201 | -80.46618 | 14054 ft | 274 kts | 148° |
| 2026-05-04 23:57 | 27.92620 | -80.45413 | 14056 ft | 273 kts | 149° |
| 2026-05-04 23:58 | 27.90955 | -80.44424 | 14053 ft | 268 kts | 164° |
| 2026-05-04 23:58 | 27.89183 | -80.43749 | 14058 ft | 268 kts | 164° |
| 2026-05-04 23:58 | 27.87421 | -80.43040 | 14057 ft | 268 kts | 164° |
| 2026-05-04 23:58 | 27.85661 | -80.42334 | 14056 ft | 268 kts | 163° |
| 2026-05-04 23:59 | 27.83924 | -80.41634 | 14058 ft | 269 kts | 164° |
| 2026-05-04 23:59 | 27.82161 | -80.40928 | 14064 ft | 269 kts | 163° |
| 2026-05-04 23:59 | 27.80397 | -80.40223 | 14058 ft | 269 kts | 163° |
| 2026-05-04 23:59 | 27.78630 | -80.39516 | 14060 ft | 269 kts | 163° |
| 2026-05-05 00:00 | 27.76872 | -80.38812 | 14052 ft | 268 kts | 163° |
| 2026-05-05 00:00 | 27.76280 | -80.38576 | 14056 ft | 267 kts | 163° |
| 2026-05-05 00:00 | 27.73382 | -80.37414 | 14053 ft | 264 kts | 164° |
| 2026-05-05 00:00 | 27.71673 | -80.36732 | 14049 ft | 263 kts | 164° |
| 2026-05-05 00:01 | 27.69948 | -80.36038 | 14053 ft | 263 kts | 164° |
| 2026-05-05 00:01 | 27.68225 | -80.35352 | 14063 ft | 262 kts | 163° |
| 2026-05-05 00:01 | 27.66515 | -80.34667 | 14056 ft | 259 kts | 163° |
| 2026-05-05 00:01 | 27.64886 | -80.33803 | 14060 ft | 257 kts | 156° |
| 2026-05-05 00:02 | 27.63272 | -80.32966 | 14057 ft | 254 kts | 159° |
| 2026-05-05 00:02 | 27.61669 | -80.32138 | 14063 ft | 252 kts | 159° |
| 2026-05-05 00:02 | 27.60083 | -80.31302 | 14063 ft | 251 kts | 158° |
| 2026-05-05 00:02 | 27.58458 | -80.30448 | 14051 ft | 278 kts | 159° |
| 2026-05-05 00:03 | 27.56522 | -80.29435 | 14073 ft | 323 kts | 157° |
| 2026-05-05 00:03 | 27.54481 | -80.28342 | 14070 ft | 324 kts | 158° |
| 2026-05-05 00:03 | 27.52455 | -80.27268 | 14071 ft | 319 kts | 158° |
| 2026-05-05 00:03 | 27.50483 | -80.26229 | 14070 ft | 314 kts | 158° |
| 2026-05-05 00:04 | 27.48508 | -80.25191 | 14070 ft | 311 kts | 157° |
| 2026-05-05 00:04 | 27.46551 | -80.24157 | 14068 ft | 309 kts | 158° |
| 2026-05-05 00:04 | 27.44609 | -80.23135 | 14069 ft | 307 kts | 158° |
| 2026-05-05 00:04 | 27.42675 | -80.22117 | 14068 ft | 306 kts | 158° |
| 2026-05-05 00:05 | 27.40748 | -80.21105 | 14059 ft | 305 kts | 158° |
| 2026-05-05 00:05 | 27.38848 | -80.20103 | 14027 ft | 297 kts | 158° |
| 2026-05-05 00:05 | 27.36993 | -80.19126 | 13838 ft | 293 kts | 157° |
| 2026-05-05 00:05 | 27.35155 | -80.18161 | 13625 ft | 290 kts | 158° |
| 2026-05-05 00:06 | 27.33326 | -80.17201 | 13415 ft | 292 kts | 158° |
| 2026-05-05 00:06 | 27.31478 | -80.16229 | 13202 ft | 294 kts | 159° |
| 2026-05-05 00:06 | 27.29623 | -80.15246 | 12966 ft | 296 kts | 158° |
| 2026-05-05 00:06 | 27.27763 | -80.14274 | 12618 ft | 300 kts | 159° |
| 2026-05-05 00:07 | 27.25861 | -80.13283 | 12275 ft | 303 kts | 158° |
| 2026-05-05 00:07 | 27.23910 | -80.12393 | 11936 ft | 304 kts | 161° |
| 2026-05-05 00:07 | 27.21972 | -80.11410 | 11589 ft | 306 kts | 159° |
| 2026-05-05 00:07 | 27.20027 | -80.10426 | 11255 ft | 306 kts | 161° |
| 2026-05-05 00:08 | 27.18060 | -80.09487 | 10922 ft | 307 kts | 161° |
| 2026-05-05 00:08 | 27.16094 | -80.08537 | 10594 ft | 308 kts | 160° |
| 2026-05-05 00:08 | 27.14128 | -80.07586 | 10269 ft | 308 kts | 160° |
| 2026-05-05 00:08 | 27.12158 | -80.06623 | 9939 ft | 308 kts | 160° |
| 2026-05-05 00:09 | 27.10188 | -80.05674 | 9582 ft | 307 kts | 161° |
| 2026-05-05 00:09 | 27.08222 | -80.04729 | 9228 ft | 307 kts | 160° |
| 2026-05-05 00:09 | 27.06272 | -80.03782 | 8877 ft | 304 kts | 161° |
| 2026-05-05 00:09 | 27.04337 | -80.02851 | 8529 ft | 301 kts | 160° |
| 2026-05-05 00:10 | 27.02445 | -80.01942 | 8188 ft | 298 kts | 160° |
| 2026-05-05 00:10 | 27.00546 | -80.01028 | 7850 ft | 296 kts | 158° |
| 2026-05-05 00:10 | 26.98701 | -80.00122 | 7507 ft | 283 kts | 158° |
| 2026-05-05 00:10 | 26.96925 | -79.99270 | 7169 ft | 272 kts | 159° |
| 2026-05-05 00:11 | 26.95213 | -79.98441 | 6831 ft | 264 kts | 158° |
| 2026-05-05 00:11 | 26.93538 | -79.97644 | 6497 ft | 258 kts | 158° |
| 2026-05-05 00:11 | 26.91801 | -79.97307 | 5721 ft | 261 kts | 187° |
| 2026-05-05 00:11 | 26.90172 | -79.98187 | 4999 ft | 263 kts | 217° |
| 2026-05-05 00:12 | 26.89328 | -79.99132 | 4878 ft | 247 kts | 229° |
| 2026-05-05 00:12 | 26.88138 | -80.01162 | 4602 ft | 225 kts | 236° |
| 2026-05-05 00:12 | 26.87312 | -80.02597 | 4447 ft | 211 kts | 234° |
| 2026-05-05 00:12 | 26.86796 | -80.03531 | 4204 ft | 211 kts | 237° |
| 2026-05-05 00:13 | 26.86051 | -80.04929 | 3857 ft | 209 kts | 236° |
| 2026-05-05 00:13 | 26.85319 | -80.06195 | 3966 ft | 186 kts | 232° |
| 2026-05-05 00:13 | 26.84558 | -80.07317 | 4013 ft | 183 kts | 221° |
| 2026-05-05 00:13 | 26.83575 | -80.08234 | 4033 ft | 185 kts | 213° |
| 2026-05-05 00:14 | 26.82546 | -80.09150 | 4046 ft | 194 kts | 214° |
| 2026-05-05 00:14 | 26.81443 | -80.10126 | 4014 ft | 205 kts | 216° |
| 2026-05-05 00:14 | 26.80640 | -80.11435 | 4047 ft | 215 kts | 257° |
| 2026-05-05 00:14 | 26.80510 | -80.13084 | 4088 ft | 207 kts | 265° |
| 2026-05-05 00:15 | 26.80392 | -80.14669 | 4007 ft | 200 kts | 264° |
| 2026-05-05 00:15 | 26.80277 | -80.16193 | 3873 ft | 192 kts | 265° |
| 2026-05-05 00:15 | 26.80165 | -80.17644 | 3847 ft | 179 kts | 264° |
| 2026-05-05 00:15 | 26.80064 | -80.18952 | 3874 ft | 165 kts | 264° |
| 2026-05-05 00:16 | 26.79983 | -80.20202 | 3846 ft | 158 kts | 264° |
| 2026-05-05 00:16 | 26.79906 | -80.21416 | 3764 ft | 155 kts | 265° |
| 2026-05-05 00:16 | 26.79834 | -80.22579 | 3804 ft | 142 kts | 264° |
| 2026-05-05 00:16 | 26.79768 | -80.23738 | 3905 ft | 157 kts | 266° |
| 2026-05-05 00:17 | 26.79689 | -80.25024 | 4016 ft | 179 kts | 265° |
| 2026-05-05 00:17 | 26.79584 | -80.26499 | 4078 ft | 199 kts | 264° |
| 2026-05-05 00:17 | 26.79472 | -80.28114 | 4077 ft | 219 kts | 266° |
| 2026-05-05 00:17 | 26.79356 | -80.29855 | 4058 ft | 229 kts | 266° |
| 2026-05-05 00:18 | 26.79065 | -80.31603 | 3889 ft | 238 kts | 243° |
| 2026-05-05 00:18 | 26.78035 | -80.32973 | 3626 ft | 224 kts | 212° |
| 2026-05-05 00:18 | 26.76656 | -80.33597 | 3371 ft | 207 kts | 183° |
| 2026-05-05 00:18 | 26.75290 | -80.33438 | 3135 ft | 193 kts | 160° |
| 2026-05-05 00:19 | 26.74111 | -80.32851 | 2931 ft | 181 kts | 142° |
| 2026-05-05 00:19 | 26.73173 | -80.31956 | 2727 ft | 172 kts | 129° |
| 2026-05-05 00:19 | 26.72417 | -80.30992 | 2724 ft | 157 kts | 124° |
| 2026-05-05 00:19 | 26.71755 | -80.30038 | 2585 ft | 154 kts | 122° |
| 2026-05-05 00:20 | 26.71140 | -80.29081 | 2455 ft | 149 kts | 120° |
| 2026-05-05 00:20 | 26.70535 | -80.28120 | 2224 ft | 152 kts | 121° |
| 2026-05-05 00:20 | 26.69984 | -80.27155 | 2126 ft | 146 kts | 116° |
| 2026-05-05 00:20 | 26.69495 | -80.26179 | 2046 ft | 141 kts | 115° |
| 2026-05-05 00:21 | 26.69111 | -80.25216 | 2065 ft | 129 kts | 102° |
| 2026-05-05 00:21 | 26.68944 | -80.24246 | 2032 ft | 124 kts | 95° |
| 2026-05-05 00:21 | 26.68874 | -80.23277 | 2100 ft | 132 kts | 93° |
| 2026-05-05 00:21 | 26.68829 | -80.22244 | 2082 ft | 128 kts | 91° |
| 2026-05-05 00:22 | 26.68764 | -80.21291 | 1985 ft | 120 kts | 90° |
| 2026-05-05 00:22 | 26.68712 | -80.20384 | 1899 ft | 113 kts | 89° |
| 2026-05-05 00:22 | 26.68680 | -80.19501 | 1708 ft | 117 kts | 89° |
| 2026-05-05 00:22 | 26.68659 | -80.18617 | 1622 ft | 112 kts | 89° |
| 2026-05-05 00:23 | 26.68634 | -80.17644 | 1556 ft | 125 kts | 90° |
| 2026-05-05 00:23 | 26.68589 | -80.16696 | 1413 ft | 114 kts | 91° |
| 2026-05-05 00:23 | 26.68538 | -80.15895 | 1264 ft | 96 kts | 90° |
| 2026-05-05 00:23 | 26.68484 | -80.15155 | 991 ft | 96 kts | 89° |
| 2026-05-05 00:24 | 26.68442 | -80.14405 | 751 ft | 100 kts | 88° |
| 2026-05-05 00:24 | 26.68421 | -80.13616 | 717 ft | 100 kts | 88° |
| 2026-05-05 00:24 | 26.68411 | -80.12822 | 581 ft | 99 kts | 89° |
| 2026-05-05 00:24 | 26.68376 | -80.12058 | 373 ft | 106 kts | 90° |
| 2026-05-05 00:25 | 26.68336 | -80.11249 | 212 ft | 96 kts | 90° |
| 2026-05-05 00:25 | 26.68309 | -80.10514 | 59 ft | 95 kts | 90° |
| 2026-05-05 00:25 | 26.68280 | -80.09874 | 25 ft | 71 kts | 95° |
| 2026-05-05 00:25 | 26.68261 | -80.09402 | 20 ft | 53 kts | 92° |
| 2026-05-05 00:26 | 26.68241 | -80.09021 | 19 ft | 45 kts | 93° |
| 2026-05-05 00:26 | 26.68173 | -80.08889 | 22 ft | 13 kts | 223° |
| 2026-05-05 00:26 | 26.68149 | -80.08906 | 21 ft | 0 kts | 170° |
| 2026-05-05 00:26 | 26.68148 | -80.08906 | 21 ft | 0 kts | 169° |
| 2026-05-05 00:27 | 26.68130 | -80.08858 | 22 ft | 19 kts | 99° |